aviador You're here:

OINN Decoded Metar

NOSHAHR in IRAN
Report Time2017-10-22 17:00:00
UTC Time2017-10-22 17:14:56
Flight Rules vfr VFR
Wind170° at 04 kt
W.Decomp.*RWY 10: 1.6 kt HW 3.7 kt RCW
W.Rank170° ranks 28
Current wind is below 170° avg. (4.2)
Visibility9999 m
Phenomena:N/A
Clouds:N/A
Expected CloudBase > 800 ft AGL from Temp-Dew spread
CeilingNone
Temp16°C (ISA +1)
Dew Point14°C (88% RH)
AAT15.8°C
QNH1009 hPa
Density Alt390 ft
Elevation-62 ft
Report Wrong Elevation
Raw Report
OINN 221700Z 17004KT CAVOK 16/14 Q1009=

Extra information for OINN:More info

Metar Taf Metar & Taf Last 4 Metars F.Rules Stats Wind Profile Meteogram Temp Stats Airport Information Weather charts Add Link Nearby VenuesMetar ALERT Operation Metar Decoded Social comments